createdAt,value
2018-10-16T00:01:51.652Z,101388.34
2018-10-16T00:05:16.952Z,101386.17
2018-10-16T00:08:41.332Z,101395.75
2018-10-16T00:12:07.801Z,101390.00
2018-10-16T00:15:32.230Z,101389.55
2018-10-16T00:18:56.634Z,101391.92
2018-10-16T00:22:21.032Z,101398.55
2018-10-16T00:25:45.451Z,101402.58
2018-10-16T00:29:09.856Z,101405.81
2018-10-16T00:32:34.411Z,101408.88
2018-10-16T00:35:58.695Z,101411.72
2018-10-16T00:39:23.113Z,101413.84
2018-10-16T00:42:47.510Z,101414.42
2018-10-16T00:46:11.981Z,101410.36
2018-10-16T00:49:36.403Z,101414.77
2018-10-16T00:53:00.804Z,101418.30
2018-10-16T00:56:25.217Z,101418.75
2018-10-16T00:59:50.280Z,101425.84
2018-10-16T01:03:14.670Z,101425.46
2018-10-16T01:06:45.777Z,101433.12
2018-10-16T01:10:11.210Z,101435.14
2018-10-16T01:13:35.619Z,101435.88
2018-10-16T01:17:00.036Z,101433.33
2018-10-16T01:20:24.464Z,101433.77
2018-10-16T01:23:48.890Z,101437.37
2018-10-16T01:27:13.305Z,101434.36
2018-10-16T01:30:37.723Z,101435.72
2018-10-16T01:34:02.168Z,101439.55
2018-10-16T01:37:26.571Z,101443.50
2018-10-16T01:40:50.979Z,101439.83
2018-10-16T01:44:15.439Z,101442.82
2018-10-16T01:47:39.821Z,101444.91
2018-10-16T01:51:04.250Z,101448.48
2018-10-16T01:54:28.664Z,101450.34
2018-10-16T01:57:53.064Z,101449.23
2018-10-16T02:01:17.441Z,101446.27
2018-10-16T02:04:41.915Z,101449.80
2018-10-16T02:08:07.492Z,101450.55
2018-10-16T02:11:31.896Z,101455.19
2018-10-16T02:14:56.434Z,101451.23
2018-10-16T02:18:20.737Z,101457.41
2018-10-16T02:21:45.172Z,101460.07
2018-10-16T02:25:12.242Z,101456.91
2018-10-16T02:28:36.648Z,101461.20
2018-10-16T02:32:01.077Z,101460.77
2018-10-16T02:35:25.487Z,101470.78
2018-10-16T02:38:49.916Z,101463.98
2018-10-16T02:42:14.375Z,101471.07
2018-10-16T02:45:38.794Z,101473.50
2018-10-16T02:49:03.160Z,101465.22
2018-10-16T02:52:27.569Z,101471.19
2018-10-16T02:55:51.999Z,101470.23
2018-10-16T02:59:16.421Z,101472.73
2018-10-16T03:02:41.085Z,101478.67
2018-10-16T03:06:06.030Z,101480.52
2018-10-16T03:09:30.431Z,101479.84
2018-10-16T03:12:54.959Z,101479.78
2018-10-16T03:16:19.336Z,101478.26
2018-10-16T03:19:43.700Z,101473.06
2018-10-16T03:23:08.106Z,101483.17
2018-10-16T03:26:32.523Z,101484.54
2018-10-16T03:29:56.913Z,101482.00
2018-10-16T03:33:21.308Z,101481.81
2018-10-16T03:36:45.720Z,101483.70
2018-10-16T03:40:11.050Z,101483.35
2018-10-16T03:43:38.277Z,101492.77
2018-10-16T03:47:02.647Z,101488.20
2018-10-16T03:50:27.083Z,101491.02
2018-10-16T03:53:52.223Z,101493.16
2018-10-16T03:57:16.750Z,101499.06
2018-10-16T04:00:41.154Z,101498.70
2018-10-16T04:04:05.862Z,101502.03
2018-10-16T04:07:30.356Z,101504.50
2018-10-16T04:10:54.722Z,101502.27
2018-10-16T04:14:19.123Z,101507.64
2018-10-16T04:17:43.562Z,101509.41
2018-10-16T04:21:08.185Z,101517.66
2018-10-16T04:24:32.615Z,101518.67
2018-10-16T04:27:57.123Z,101522.63
2018-10-16T04:31:21.495Z,101512.61
2018-10-16T04:34:46.109Z,101517.84
2018-10-16T04:38:10.602Z,101517.64
2018-10-16T04:41:35.253Z,101508.31
2018-10-16T04:44:59.668Z,101519.30
2018-10-16T04:48:24.443Z,101516.27
2018-10-16T04:51:48.840Z,101519.42
2018-10-16T04:55:13.390Z,101530.78
2018-10-16T04:58:37.803Z,101530.27
2018-10-16T05:02:02.245Z,101534.66
2018-10-16T05:05:26.717Z,101536.88
2018-10-16T05:08:51.143Z,101531.77
2018-10-16T05:12:15.574Z,101534.91
2018-10-16T05:15:39.962Z,101542.48
2018-10-16T05:19:04.422Z,101536.93
2018-10-16T05:22:28.781Z,101540.20
2018-10-16T05:25:53.217Z,101543.02
2018-10-16T05:29:17.619Z,101552.67
2018-10-16T05:32:42.046Z,101552.90
2018-10-16T05:36:07.023Z,101545.45
2018-10-16T05:39:31.432Z,101551.98
2018-10-16T05:42:55.867Z,101555.84
2018-10-16T05:46:20.261Z,101559.95
2018-10-16T05:49:44.675Z,101554.52
2018-10-16T05:53:09.100Z,101566.57
2018-10-16T05:56:33.498Z,101569.70
2018-10-16T06:00:40.099Z,101574.48
2018-10-16T06:04:04.790Z,101575.61
2018-10-16T06:07:29.238Z,101579.07
2018-10-16T06:10:53.754Z,101574.39
2018-10-16T06:14:18.070Z,101574.58
2018-10-16T06:17:42.455Z,101589.75
2018-10-16T06:21:06.891Z,101595.80
2018-10-16T06:24:31.411Z,101602.50
2018-10-16T06:27:55.753Z,101587.13
2018-10-16T06:31:20.160Z,101598.10
2018-10-16T06:34:44.603Z,101593.81
2018-10-16T06:38:09.021Z,101594.80
2018-10-16T06:41:33.449Z,101602.44
2018-10-16T06:44:57.869Z,101601.95
2018-10-16T06:48:22.598Z,101606.92
2018-10-16T06:51:46.765Z,101600.55
2018-10-16T06:55:11.263Z,101596.98
2018-10-16T06:58:35.635Z,101601.50
2018-10-16T07:02:00.062Z,101602.00
2018-10-16T07:05:24.816Z,101610.05
2018-10-16T07:08:49.212Z,101609.03
2018-10-16T07:12:13.636Z,101610.53
2018-10-16T07:15:38.079Z,101614.19
2018-10-16T07:19:02.538Z,101618.63
2018-10-16T07:22:26.953Z,101615.34
2018-10-16T07:25:51.396Z,101618.97
2018-10-16T07:29:15.815Z,101617.09
2018-10-16T07:32:40.208Z,101621.60
2018-10-16T07:36:04.718Z,101625.27
2018-10-16T07:39:29.131Z,101621.69
2018-10-16T07:42:53.587Z,101622.44
2018-10-16T07:46:18.053Z,101620.16
2018-10-16T07:49:42.511Z,101620.97
2018-10-16T07:53:07.333Z,101631.48
2018-10-16T07:56:31.837Z,101642.16
2018-10-16T07:59:56.262Z,101640.59
2018-10-16T08:03:20.696Z,101641.91
2018-10-16T08:06:45.160Z,101645.15
2018-10-16T08:10:11.572Z,101648.00
2018-10-16T08:13:35.991Z,101640.10
2018-10-16T08:17:00.460Z,101641.67
2018-10-16T08:20:24.813Z,101642.77
2018-10-16T08:23:49.248Z,101643.99
2018-10-16T08:27:13.702Z,101654.08
2018-10-16T08:30:38.221Z,101649.42
2018-10-16T08:34:02.706Z,101646.16
2018-10-16T08:38:48.501Z,101642.97
2018-10-16T08:43:26.453Z,101651.86
2018-10-16T08:47:07.764Z,101653.58
2018-10-16T08:50:49.927Z,101637.16
2018-10-16T08:54:14.392Z,101644.56
2018-10-16T08:57:38.811Z,101639.11
2018-10-16T09:01:03.316Z,101645.50
2018-10-16T09:04:27.742Z,101648.34
2018-10-16T09:07:52.177Z,101652.18
2018-10-16T09:11:16.839Z,101647.22
2018-10-16T09:14:41.339Z,101654.21
2018-10-16T09:18:05.806Z,101649.22
2018-10-16T09:21:30.278Z,101643.91
2018-10-16T09:24:55.071Z,101647.09
2018-10-16T09:28:19.719Z,101646.50
2018-10-16T09:31:45.261Z,101645.30
2018-10-16T09:35:11.816Z,101644.41
2018-10-16T09:38:36.962Z,101642.61
2018-10-16T09:42:01.633Z,101643.80
2018-10-16T09:45:26.321Z,101640.27
2018-10-16T09:48:50.914Z,101653.95
2018-10-16T09:52:15.505Z,101651.00
2018-10-16T09:55:39.897Z,101648.06
2018-10-16T09:59:04.498Z,101646.73
2018-10-16T10:02:29.097Z,101646.80
2018-10-16T10:05:53.576Z,101647.16
2018-10-16T10:09:22.487Z,101646.38
2018-10-16T10:12:46.925Z,101646.34
2018-10-16T10:16:11.354Z,101636.68
2018-10-16T10:19:35.862Z,101635.10
2018-10-16T10:23:00.344Z,101643.27
2018-10-16T10:26:24.811Z,101639.16
2018-10-16T10:29:49.274Z,101641.78
2018-10-16T10:33:13.929Z,101638.17
2018-10-16T10:36:38.354Z,101635.05
2018-10-16T10:40:02.820Z,101635.02
2018-10-16T10:43:27.260Z,101635.76
2018-10-16T10:46:51.670Z,101635.64
2018-10-16T10:50:16.255Z,101621.14
2018-10-16T10:53:40.678Z,101624.39
2018-10-16T10:57:05.670Z,101626.86
2018-10-16T11:00:29.937Z,101625.81
2018-10-16T11:03:54.361Z,101617.80
2018-10-16T11:07:18.849Z,101621.73
2018-10-16T11:10:43.265Z,101616.41
2018-10-16T11:14:07.935Z,101619.03
2018-10-16T11:17:32.396Z,101628.48
2018-10-16T11:20:56.864Z,101623.31
2018-10-16T11:24:21.353Z,101624.42
2018-10-16T11:27:45.861Z,101618.67
2018-10-16T11:31:10.269Z,101616.42
2018-10-16T11:34:34.745Z,101622.95
2018-10-16T11:37:59.197Z,101611.55
2018-10-16T11:41:23.668Z,101613.48
2018-10-16T11:44:48.104Z,101614.24
2018-10-16T11:48:12.600Z,101612.28
2018-10-16T11:51:37.190Z,101621.10
2018-10-16T11:55:01.640Z,101612.31
2018-10-16T11:58:26.076Z,101617.38
2018-10-16T12:01:50.547Z,101614.56
2018-10-16T12:05:15.047Z,101611.88
2018-10-16T12:08:39.498Z,101610.47
2018-10-16T12:12:04.028Z,101602.20
2018-10-16T12:15:28.499Z,101602.77
2018-10-16T12:18:58.351Z,101609.03
2018-10-16T12:22:22.740Z,101603.48
2018-10-16T12:25:47.319Z,101605.30
2018-10-16T12:29:11.807Z,101594.88
2018-10-16T12:32:36.710Z,101601.75
2018-10-16T12:36:01.238Z,101592.35
2018-10-16T12:39:25.728Z,101592.89
2018-10-16T12:42:50.449Z,101589.80
2018-10-16T12:46:14.842Z,101586.36
2018-10-16T12:49:39.230Z,101580.08
2018-10-16T12:53:03.797Z,101577.98
2018-10-16T12:56:28.321Z,101583.66
2018-10-16T12:59:52.811Z,101582.59
2018-10-16T13:03:17.306Z,101586.05
2018-10-16T13:06:41.745Z,101587.52
2018-10-16T13:10:10.860Z,101593.19
2018-10-16T13:13:35.276Z,101590.38
2018-10-16T13:16:59.962Z,101599.55
2018-10-16T13:20:24.301Z,101589.23
2018-10-16T13:23:48.752Z,101583.81
2018-10-16T13:27:13.309Z,101581.68
2018-10-16T13:30:38.095Z,101584.38
2018-10-16T13:34:04.477Z,101581.25
2018-10-16T13:37:30.504Z,101580.35
2018-10-16T13:40:55.050Z,101579.28
2018-10-16T13:44:19.577Z,101580.19
2018-10-16T13:47:44.719Z,101578.22
2018-10-16T13:51:12.696Z,101584.87
2018-10-16T13:54:37.134Z,101587.30
2018-10-16T13:58:01.780Z,101579.61
2018-10-16T14:01:26.469Z,101574.97
2018-10-16T14:04:51.189Z,101578.22
2018-10-16T14:08:15.559Z,101573.77
2018-10-16T14:11:39.981Z,101574.41
2018-10-16T14:15:05.749Z,101576.91
2018-10-16T14:18:30.348Z,101567.22
2018-10-16T14:21:54.774Z,101562.30
2018-10-16T14:25:19.229Z,101560.04
2018-10-16T14:28:43.663Z,101561.77
2018-10-16T14:32:08.184Z,101554.89
2018-10-16T14:35:32.593Z,101556.41
2018-10-16T14:38:57.322Z,101561.38
2018-10-16T14:42:21.728Z,101563.58
2018-10-16T14:45:49.517Z,101554.20
2018-10-16T14:49:13.965Z,101555.93
2018-10-16T14:52:38.421Z,101549.41
2018-10-16T14:56:02.920Z,101544.58
2018-10-16T14:59:27.335Z,101548.29
2018-10-16T15:02:51.762Z,101551.33
2018-10-16T15:06:16.211Z,101549.30
2018-10-16T15:09:40.693Z,101547.06
2018-10-16T15:13:05.336Z,101544.91
2018-10-16T15:16:30.025Z,101550.05
2018-10-16T15:19:54.546Z,101551.53
2018-10-16T15:23:18.922Z,101550.66
2018-10-16T15:26:43.335Z,101546.91
2018-10-16T15:30:09.432Z,101545.36
2018-10-16T15:33:33.905Z,101543.97
2018-10-16T15:36:58.416Z,101538.60
2018-10-16T15:40:22.849Z,101545.03
2018-10-16T15:43:47.288Z,101545.27
2018-10-16T15:47:11.701Z,101546.49
2018-10-16T15:50:36.153Z,101541.02
2018-10-16T15:54:00.728Z,101545.91
2018-10-16T15:57:25.106Z,101550.52
2018-10-16T16:00:49.527Z,101554.92
2018-10-16T16:04:15.262Z,101548.23
2018-10-16T16:07:39.693Z,101550.27
2018-10-16T16:11:04.114Z,101551.06
2018-10-16T16:14:28.595Z,101549.18
2018-10-16T16:17:53.202Z,101553.62
2018-10-16T16:21:17.568Z,101560.75
2018-10-16T16:24:42.000Z,101564.81
2018-10-16T16:28:06.517Z,101563.52
2018-10-16T16:31:30.968Z,101571.34
2018-10-16T16:34:55.433Z,101569.41
2018-10-16T16:38:19.932Z,101571.39
2018-10-16T16:41:45.666Z,101574.32
2018-10-16T16:45:14.436Z,101571.84
2018-10-16T16:48:39.302Z,101576.20
2018-10-16T16:52:03.793Z,101571.05
2018-10-16T16:55:28.159Z,101584.12
2018-10-16T16:58:52.738Z,101584.33
2018-10-16T17:02:17.140Z,101581.39
2018-10-16T17:05:41.657Z,101584.14
2018-10-16T17:09:10.283Z,101587.67
2018-10-16T17:12:34.849Z,101586.56
2018-10-16T17:15:59.442Z,101589.45
2018-10-16T17:19:24.011Z,101595.11
2018-10-16T17:22:48.493Z,101588.03
2018-10-16T17:26:13.447Z,101592.14
2018-10-16T17:29:37.602Z,101597.86
2018-10-16T17:33:02.080Z,101597.22
2018-10-16T17:36:26.474Z,101591.31
2018-10-16T17:39:50.934Z,101601.95
2018-10-16T17:43:15.337Z,101605.77
2018-10-16T17:46:39.750Z,101602.27
2018-10-16T17:50:04.424Z,101607.77
2018-10-16T17:53:28.881Z,101615.30
2018-10-16T17:56:53.368Z,101618.56
2018-10-16T18:00:19.168Z,101618.28
2018-10-16T18:03:43.671Z,101625.36
2018-10-16T18:07:08.174Z,101619.63
2018-10-16T18:10:32.657Z,101623.73
2018-10-16T18:13:57.124Z,101629.44
2018-10-16T18:17:21.520Z,101625.66
2018-10-16T18:20:45.969Z,101628.97
2018-10-16T18:24:10.542Z,101620.86
2018-10-16T18:27:35.017Z,101625.88
2018-10-16T18:30:59.572Z,101620.97
2018-10-16T18:34:24.025Z,101624.27
2018-10-16T18:37:48.571Z,101619.34
2018-10-16T18:41:13.087Z,101618.83
2018-10-16T18:44:38.001Z,101613.61
2018-10-16T18:48:02.459Z,101620.22
2018-10-16T18:51:27.681Z,101617.03
2018-10-16T18:54:53.540Z,101621.80
2018-10-16T18:58:19.122Z,101626.88
2018-10-16T19:01:43.565Z,101624.16
2018-10-16T19:05:08.915Z,101627.82
2018-10-16T19:08:34.168Z,101623.76
2018-10-16T19:11:58.851Z,101625.12
2018-10-16T19:15:24.422Z,101632.43
2018-10-16T19:18:48.881Z,101631.60
2018-10-16T19:22:14.355Z,101630.92
2018-10-16T19:25:38.908Z,101626.89
2018-10-16T19:29:03.951Z,101630.84
2018-10-16T19:32:29.159Z,101637.94
2018-10-16T19:35:54.004Z,101631.53
2018-10-16T19:39:18.874Z,101633.86
2018-10-16T19:42:43.999Z,101637.13
2018-10-16T19:46:08.602Z,101641.84
2018-10-16T19:49:33.837Z,101647.97
2018-10-16T19:52:58.946Z,101643.76
2018-10-16T19:56:23.422Z,101644.27
2018-10-16T19:59:49.066Z,101645.05
2018-10-16T20:03:13.559Z,101651.18
2018-10-16T20:06:38.024Z,101659.56
2018-10-16T20:10:02.982Z,101657.55
2018-10-16T20:13:28.180Z,101649.74
2018-10-16T20:16:54.635Z,101657.63
2018-10-16T20:20:19.674Z,101660.29
2018-10-16T20:23:44.063Z,101653.65
2018-10-16T20:27:08.529Z,101652.52
2018-10-16T20:30:32.968Z,101661.83
2018-10-16T20:33:57.463Z,101653.46
2018-10-16T20:37:21.977Z,101675.64
2018-10-16T20:40:46.438Z,101663.97
2018-10-16T20:44:10.903Z,101652.86
2018-10-16T20:47:35.424Z,101652.23
2018-10-16T20:51:00.060Z,101658.24
2018-10-16T20:54:24.453Z,101657.15
2018-10-16T20:57:48.887Z,101659.02
2018-10-16T21:01:14.547Z,101663.24
2018-10-16T21:04:39.095Z,101658.55
2018-10-16T21:08:03.477Z,101669.12
2018-10-16T21:11:27.934Z,101659.80
2018-10-16T21:14:52.354Z,101663.66
2018-10-16T21:18:23.467Z,101661.88
2018-10-16T21:21:47.899Z,101662.89
2018-10-16T21:25:12.518Z,101666.73
2018-10-16T21:28:37.073Z,101661.25
2018-10-16T21:32:01.491Z,101657.28
2018-10-16T21:35:25.932Z,101653.19
2018-10-16T21:38:50.419Z,101647.96
2018-10-16T21:42:14.844Z,101641.91
2018-10-16T21:45:39.291Z,101634.27
2018-10-16T21:49:03.725Z,101634.64
2018-10-16T21:52:28.146Z,101626.92
2018-10-16T21:55:52.561Z,101631.74
2018-10-16T21:59:17.472Z,101628.67
2018-10-16T22:02:47.087Z,101627.81
2018-10-16T22:06:12.219Z,101625.16
2018-10-16T22:09:36.866Z,101624.14
2018-10-16T22:13:01.345Z,101623.41
2018-10-16T22:16:25.754Z,101628.66
2018-10-16T22:19:50.184Z,101622.61
2018-10-16T22:23:14.666Z,101624.09
2018-10-16T22:26:39.024Z,101619.84
2018-10-16T22:30:03.596Z,101623.36
2018-10-16T22:33:27.993Z,101618.59
2018-10-16T22:36:52.392Z,101625.44
2018-10-16T22:40:16.820Z,101619.53
2018-10-16T22:43:41.213Z,101618.19
2018-10-16T22:47:05.702Z,101619.34
2018-10-16T22:50:30.302Z,101613.25
2018-10-16T22:53:54.723Z,101612.29
2018-10-16T22:57:19.175Z,101610.40
2018-10-16T23:00:43.591Z,101616.78
2018-10-16T23:04:08.891Z,101609.80
2018-10-16T23:07:33.325Z,101614.38
2018-10-16T23:10:57.797Z,101616.55
2018-10-16T23:14:22.166Z,101615.50
2018-10-16T23:17:46.596Z,101618.06
2018-10-16T23:21:10.986Z,101602.73
2018-10-16T23:24:35.458Z,101604.53
2018-10-16T23:27:59.876Z,101600.39
2018-10-16T23:31:24.315Z,101600.47
2018-10-16T23:34:48.707Z,101599.95
2018-10-16T23:38:13.120Z,101599.22
2018-10-16T23:41:37.655Z,101604.34
2018-10-16T23:45:02.050Z,101601.67
2018-10-16T23:48:26.424Z,101597.24
2018-10-16T23:51:50.871Z,101591.22
2018-10-16T23:55:15.387Z,101588.00
2018-10-16T23:58:39.790Z,101596.68
